CheckWX is a tool to help pilots better visualize weather data.  It is not intended as a substitute for an official pre-flight weather briefing.

06:15:15 UTC

EGHC METAR
Land's End Airport
Land's End, United Kingdom
Current

13 hours ago

EGHC 221650Z 12010KT 8000 NSC 13/10 Q0999
Observed
Apr-22 @ 16:50 UTC
Wind
  • 120° at 10 KTS
Visibility
7,998 meters
Flight Rules
MVFR
Cloud Levels
  • Clear skies
Temperature
13°C / 55°F
Dewpoint
10°C / 50°F
Humidity
82%
Altimeter
29.5" Hg
Pressure
998.92 hPa
Previous

14 hours ago

EGHC 221620Z 14010KT 8000 NSC 13/10 Q0999
Observed
Apr-22 @ 16:20 UTC
Wind
  • 140° at 10 KTS
Visibility
7,998 meters
Flight Rules
MVFR
Cloud Levels
  • Clear skies
Temperature
13°C / 55°F
Dewpoint
10°C / 50°F
Humidity
82%
Altimeter
29.5" Hg
Pressure
998.92 hPa
Previous

14 hours ago

EGHC 221550Z 15012KT 8000 NSC 14/11 Q0999
Observed
Apr-22 @ 15:50 UTC
Wind
  • 150° at 12 KTS
Visibility
7,998 meters
Flight Rules
MVFR
Cloud Levels
  • Clear skies
Temperature
14°C / 57°F
Dewpoint
11°C / 52°F
Humidity
82%
Altimeter
29.5" Hg
Pressure
998.92 hPa